WetterOnline ( https://www.wetteronline.de )

Wetter aktuell Itzehoe

Aktuelles Wetter: Itzehoe (26m)

6-stündlich | Neueste Meldungen
Ortszeit Temperatur Wetter
Mi, 07.12. 1:00 2.0° C leicht bewölkt
Di, 06.12. 19:00 -0.7° C bedeckt
Di, 06.12. 13:00 2.9° C bedeckt
Di, 06.12. 7:00 3.2° C Sprühregen
Di, 06.12. 1:00 4.0° C bewölkt
Mo, 05.12. 19:00 4.5° C leichter Regen
Mo, 05.12. 13:00 4.7° C bewölkt
Mo, 05.12. 7:00 4.7° C Sprühregen
Ortszeit Temperatur Wetter
Mi, 07.12. 1:00 2.0° C leicht bewölkt
Mi, 07.12. 0:50 2.0° C Dunst
Mi, 07.12. 0:40 2.0° C Dunst
Mi, 07.12. 0:30 2.1° C bewölkt
Mi, 07.12. 0:20 2.1° C Dunst
Mi, 07.12. 0:10 2.1° C Dunst
Mi, 07.12. 0:00 2.2° C bewölkt
Di, 06.12. 23:30 2.1° C bewölkt
Di, 06.12. 23:00 1.6° C bewölkt
Di, 06.12. 22:30 1.0° C wolkig
Di, 06.12. 22:00 1.3° C Regen
Ortszeit Relative Feuchte Sichtweite
Mi, 07.12. 1:00 97% 6 km
Di, 06.12. 19:00 96% 16 km
Di, 06.12. 13:00 87% 35 km
Di, 06.12. 7:00 95% 6 km
Di, 06.12. 1:00 97% 4.7 km
Mo, 05.12. 19:00 95% 16 km
Mo, 05.12. 13:00 97% 3.3 km
Mo, 05.12. 7:00 95% 9 km
Ortszeit Relative Feuchte Sichtweite
Mi, 07.12. 1:00 97% 6 km
Mi, 07.12. 0:50 97% -
Mi, 07.12. 0:40 96% -
Mi, 07.12. 0:30 98% 5.0 km
Mi, 07.12. 0:20 98% -
Mi, 07.12. 0:10 97% -
Mi, 07.12. 0:00 96% 9 km
Di, 06.12. 23:30 96% 11 km
Di, 06.12. 23:00 95% 18 km
Di, 06.12. 22:30 96% 13 km
Di, 06.12. 22:00 94% 18 km
Ortszeit Niederschlagsmenge Niederschlagsart
Mi, 07.12. 1:00 0.1 l/m2 in 6 Std. Regen
Di, 06.12. 19:00 0.1 l/m2 in 12 Std. -
Di, 06.12. 13:00 0.1 l/m2 in 6 Std. Regen
Di, 06.12. 7:00 0.9 l/m2 in 12 Std. Regen
Di, 06.12. 1:00 0.5 l/m2 in 6 Std. Regen
Mo, 05.12. 19:00 4 l/m2 in 12 Std. Regen
Mo, 05.12. 13:00 2 l/m2 in 6 Std. Regen
Mo, 05.12. 7:00 0.5 l/m2 in 12 Std. Sprühregen
Ortszeit Niederschlagsmenge Niederschlagsart
Mi, 07.12. 1:00 <0.05 l/m2 in 1 Std. Regen
Mi, 07.12. 0:50 keine Meldung -
Mi, 07.12. 0:40 keine Meldung -
Mi, 07.12. 0:30 <0.05 l/m2 in 30 Min Schneeregen
Mi, 07.12. 0:20 keine Meldung -
Mi, 07.12. 0:10 keine Meldung -
Mi, 07.12. 0:00 0.0 l/m2 in 1 Std. -
Di, 06.12. 23:30 0.0 l/m2 in 30 Min -
Di, 06.12. 23:00 <0.05 l/m2 in 1 Std. Regen
Di, 06.12. 22:30 <0.05 l/m2 in 30 Min Schneeregen
Di, 06.12. 22:00 0.1 l/m2 in 1 Std. Regen
Ortszeit Stärke Spitze Richtung
km/h Bft. km/h Grad Sektor
Mi, 07.12. 1:00 7 2 18 220° SW
Di, 06.12. 19:00 2 1 13 150° SO
Di, 06.12. 13:00 7 2 22 330° NW
Di, 06.12. 7:00 11 2 25 340° N
Di, 06.12. 1:00 14 3 25 350° N
Mo, 05.12. 19:00 9 2 20 10° N
Mo, 05.12. 13:00 11 2 32 50° NO
Mo, 05.12. 7:00 22 4 36 40° NO
Ortszeit Stärke Spitze Richtung
km/h Bft. km/h Grad Sektor
Mi, 07.12. 1:00 7 2 14 220° SW
Mi, 07.12. 0:50 7 2 - 220° SW
Mi, 07.12. 0:40 7 2 - 210° SW
Mi, 07.12. 0:30 6 1 11 220° SW
Mi, 07.12. 0:20 6 1 - 220° SW
Mi, 07.12. 0:10 6 1 - 230° SW
Mi, 07.12. 0:00 6 1 17 230° SW
Di, 06.12. 23:30 7 2 18 220° SW
Di, 06.12. 23:00 6 1 11 210° SW
Di, 06.12. 22:30 4 1 11 190° S
Di, 06.12. 22:00 6 1 9 170° S
Ortszeit Untergrenze Bedeckung Gattung
total tief tief mittel hoch
Mi, 07.12. 1:00 1800 m 2/8 2/8 - - -
Di, 06.12. 19:00 720 m 8/8 8/8 - - -
Di, 06.12. 13:00 240 m 8/8 8/8 - - -
Di, 06.12. 7:00 120 m 7/8 7/8 - - -
Di, 06.12. 1:00 120 m 7/8 7/8 - - -
Mo, 05.12. 19:00 180 m 7/8 7/8 - - -
Mo, 05.12. 13:00 150 m 7/8 7/8 - - -
Mo, 05.12. 7:00 180 m 8/8 8/8 - - -
Ortszeit Bedeckungsgrad in Achtel und Wolkenuntergrenze
Mi, 07.12. 1:00 2(1800m)
Mi, 07.12. 0:50 2(1800m)
Mi, 07.12. 0:40 2
Mi, 07.12. 0:30 2(720m) 6(1500m) 7(1800m)
Mi, 07.12. 0:20 2(720m) 6(1500m) 7(1800m)
Mi, 07.12. 0:10 7
Mi, 07.12. 0:00 5(1050m) 7(1500m)
Di, 06.12. 23:30 1(1080m) 3(1320m) 7(1500m)
Di, 06.12. 23:00 7(1800m) 7(2100m)
Di, 06.12. 22:30 2(690m) 3(960m) 5(1800m)
Di, 06.12. 22:00 3(390m) 7(750m) 7(960m)
Ortszeit Luftdruck NN (hPa) Tendenz (hPa in 3 Std.)
Mi, 07.12. 1:00 1011 - 1,7
Di, 06.12. 19:00 1015 - 0,5
Di, 06.12. 13:00 1017 - 0,7
Di, 06.12. 7:00 1017 - 0,5
Di, 06.12. 1:00 1018 - 0,7
Mo, 05.12. 19:00 1019 - 0,1
Mo, 05.12. 13:00 1019 - 0,6
Mo, 05.12. 7:00 1020 - 0,3
Ortszeit Luftdruck NN (hPa) Tendenz (hPa in 3 Std.)
Mi, 07.12. 1:00 1011 - 1,7
Mi, 07.12. 0:50 1011 keine Meldung
Mi, 07.12. 0:40 1011 keine Meldung
Mi, 07.12. 0:30 1012 - 1,9
Mi, 07.12. 0:20 1012 keine Meldung
Mi, 07.12. 0:10 1012 keine Meldung
Mi, 07.12. 0:00 1012 - 1,9
Di, 06.12. 23:30 1012 - 2,0
Di, 06.12. 23:00 1012 - 2,3
Di, 06.12. 22:30 1013 - 2,1
Di, 06.12. 22:00 1013 - 2,2
Ortszeit Schneehöhe (cm)
Mi, 07.12. 1:00 -
Di, 06.12. 19:00 -
Di, 06.12. 13:00 -
Di, 06.12. 7:00 -
Di, 06.12. 1:00 -
Mo, 05.12. 19:00 -
Mo, 05.12. 13:00 -
Mo, 05.12. 7:00 -
Ortszeit Schneehöhe (cm)
Mi, 07.12. 1:00 -
Mi, 07.12. 0:50 -
Mi, 07.12. 0:40 -
Mi, 07.12. 0:30 -
Mi, 07.12. 0:20 -
Mi, 07.12. 0:10 -
Mi, 07.12. 0:00 -
Di, 06.12. 23:30 -
Di, 06.12. 23:00 -
Di, 06.12. 22:30 -
Di, 06.12. 22:00 -
Link zu dieser Seite / Seite empfehlen

Das Wetter in ...